Time;durP1;ratioP1;P1;durP2;ratioP2;P2;SDS_P1;SDS_P2;PMS_P1;PMS_P2;Temp;Humidity;BMP_temperature;BMP_pressure;BME280_temperature;BME280_humidity;BME280_pressure;Samples;Min_cycle;Max_cycle;Signal;HPM_P1;HPM_P2
2023/10/23 00:00:08;;;;;;;8.57;8.07;;;11.80;99.90;;;;;;5091703;28;20453;-83
2023/10/23 00:02:38;;;;;;;8.60;8.30;;;11.80;99.90;;;;;;5091436;28;20991;-83
2023/10/23 00:05:07;;;;;;;8.23;7.93;;;11.80;99.90;;;;;;5090976;28;20832;-83
2023/10/23 00:07:35;;;;;;;8.43;7.93;;;11.80;99.90;;;;;;5093627;28;20465;-82
2023/10/23 00:10:04;;;;;;;8.33;8.00;;;11.80;99.90;;;;;;5093236;28;20461;-83
2023/10/23 00:12:33;;;;;;;8.30;8.00;;;11.80;99.90;;;;;;5093522;28;20446;-83
2023/10/23 00:15:01;;;;;;;9.00;8.30;;;11.60;99.90;;;;;;5095272;28;20461;-84
2023/10/23 00:17:29;;;;;;;8.97;8.43;;;11.70;99.90;;;;;;5094934;28;21015;-84
2023/10/23 00:19:58;;;;;;;8.50;8.20;;;11.50;99.90;;;;;;5092413;28;20463;-83
2023/10/23 00:22:26;;;;;;;8.40;8.10;;;11.50;99.90;;;;;;5097568;28;20450;-85
2023/10/23 00:24:54;;;;;;;8.07;7.77;;;11.50;99.90;;;;;;5094050;28;20478;-84
2023/10/23 00:27:22;;;;;;;8.60;8.00;;;11.40;99.90;;;;;;5089776;28;20454;-83
2023/10/23 00:29:52;;;;;;;8.10;7.80;;;11.40;99.90;;;;;;5090465;28;20592;-83
2023/10/23 00:32:20;;;;;;;8.30;7.90;;;11.40;99.90;;;;;;5087681;28;20442;-83
2023/10/23 00:34:48;;;;;;;8.30;8.00;;;11.30;99.90;;;;;;5091248;28;20461;-83
2023/10/23 00:37:16;;;;;;;7.80;7.50;;;11.40;99.90;;;;;;5093636;28;20901;-82
2023/10/23 00:39:44;;;;;;;7.97;7.67;;;11.40;99.90;;;;;;5094089;28;20814;-82
2023/10/23 00:42:12;;;;;;;7.93;7.50;;;11.40;99.90;;;;;;5095153;28;21367;-82
2023/10/23 00:44:41;;;;;;;8.07;7.63;;;11.30;99.90;;;;;;5095141;28;20469;-82
2023/10/23 00:47:11;;;;;;;8.30;8.00;;;11.30;99.90;;;;;;5094509;28;20476;-82
2023/10/23 00:49:40;;;;;;;7.90;7.50;;;11.30;99.90;;;;;;5089093;28;20473;-81
2023/10/23 00:52:08;;;;;;;7.90;7.60;;;11.30;99.90;;;;;;5096927;28;20464;-82
2023/10/23 00:54:39;;;;;;;8.47;8.10;;;11.20;99.90;;;;;;5093148;28;20476;-82
2023/10/23 00:57:08;;;;;;;8.57;8.17;;;11.20;99.90;;;;;;5092886;28;20447;-83
2023/10/23 00:59:37;;;;;;;8.57;8.13;;;11.20;99.90;;;;;;5094896;28;20446;-82
2023/10/23 01:02:05;;;;;;;7.77;7.37;;;11.30;99.90;;;;;;5093126;28;20527;-82
2023/10/23 01:04:35;;;;;;;7.97;7.57;;;11.20;99.90;;;;;;5090261;28;20485;-83
2023/10/23 01:07:04;;;;;;;8.60;8.30;;;11.10;99.90;;;;;;5092406;28;20455;-82
2023/10/23 01:09:32;;;;;;;8.67;8.30;;;11.10;99.90;;;;;;5090929;28;21172;-83
2023/10/23 01:12:00;;;;;;;8.37;8.07;;;11.00;99.90;;;;;;5092537;28;20503;-83
2023/10/23 01:14:28;;;;;;;8.90;8.30;;;11.00;99.90;;;;;;5090260;28;20473;-83
2023/10/23 01:16:56;;;;;;;7.73;7.37;;;11.00;99.90;;;;;;5092312;28;20453;-84
2023/10/23 01:19:24;;;;;;;8.50;7.93;;;11.00;99.90;;;;;;5091268;28;20487;-84
2023/10/23 01:21:54;;;;;;;8.00;7.70;;;11.00;99.90;;;;;;5093285;28;20464;-83
2023/10/23 01:24:24;;;;;;;7.93;7.50;;;11.00;99.90;;;;;;5086278;28;20883;-84
2023/10/23 01:26:54;;;;;;;7.90;7.60;;;11.00;99.90;;;;;;5090766;28;20840;-82
2023/10/23 01:29:23;;;;;;;7.70;7.23;;;11.00;99.90;;;;;;5091779;28;20484;-82
2023/10/23 01:31:51;;;;;;;7.67;7.47;;;11.00;99.90;;;;;;5091616;28;20446;-82
2023/10/23 01:34:19;;;;;;;7.93;7.63;;;11.00;99.90;;;;;;5093196;28;20480;-82
2023/10/23 01:36:47;;;;;;;9.67;7.80;;;11.00;99.90;;;;;;5089451;28;20453;-83
2023/10/23 01:39:15;;;;;;;7.60;7.30;;;11.00;99.90;;;;;;5092249;28;20525;-82
2023/10/23 01:41:43;;;;;;;7.77;7.27;;;10.90;99.90;;;;;;5092775;28;20442;-83
2023/10/23 01:44:13;;;;;;;8.03;7.33;;;10.90;99.90;;;;;;5090176;28;20465;-83
2023/10/23 01:46:41;;;;;;;8.07;7.67;;;10.90;99.90;;;;;;5092484;28;21004;-84
2023/10/23 01:49:09;;;;;;;8.00;7.60;;;10.90;99.90;;;;;;5087305;28;21082;-82
2023/10/23 01:51:37;;;;;;;8.20;7.70;;;10.90;99.90;;;;;;5090608;28;20458;-83
2023/10/23 01:54:06;;;;;;;8.40;8.03;;;10.90;99.90;;;;;;5087016;28;20605;-83
2023/10/23 01:56:36;;;;;;;7.80;7.60;;;10.90;99.90;;;;;;5095756;28;20449;-83
2023/10/23 01:59:04;;;;;;;8.60;8.10;;;10.80;99.90;;;;;;5091192;28;20479;-83
2023/10/23 02:01:38;;;;;;;8.20;7.83;;;10.80;99.90;;;;;;5093703;28;20481;-83
2023/10/23 02:04:07;;;;;;;8.50;8.20;;;10.70;99.90;;;;;;5095406;28;20469;-83
2023/10/23 02:06:35;;;;;;;8.03;7.63;;;10.70;99.90;;;;;;5094323;28;20457;-83
2023/10/23 02:09:04;;;;;;;8.17;7.57;;;10.70;99.90;;;;;;5097361;28;20478;-82
2023/10/23 02:11:32;;;;;;;8.50;8.10;;;10.70;99.90;;;;;;5096969;28;20842;-83
2023/10/23 02:14:00;;;;;;;9.13;8.73;;;10.70;99.90;;;;;;5093969;28;20457;-82
2023/10/23 02:16:28;;;;;;;44.77;26.03;;;10.70;99.90;;;;;;5095720;28;20843;-82
2023/10/23 02:18:57;;;;;;;22.93;15.87;;;10.70;99.90;;;;;;5091168;28;20442;-82
2023/10/23 02:21:25;;;;;;;25.10;18.50;;;10.70;99.90;;;;;;5095891;28;20549;-82
2023/10/23 02:23:54;;;;;;;11.60;10.50;;;10.60;99.90;;;;;;5095565;28;20450;-82
2023/10/23 02:26:25;;;;;;;10.33;9.63;;;10.50;99.90;;;;;;5092007;28;20529;-82
2023/10/23 02:28:53;;;;;;;9.27;8.50;;;10.50;99.90;;;;;;5093652;27;20982;-83
2023/10/23 02:31:22;;;;;;;8.80;8.30;;;10.50;99.90;;;;;;5094114;28;20518;-83
2023/10/23 02:33:53;;;;;;;9.53;8.97;;;10.50;99.90;;;;;;5093716;28;21035;-83
2023/10/23 02:36:23;;;;;;;8.17;7.67;;;10.50;99.90;;;;;;5095226;28;20554;-82
2023/10/23 02:38:51;;;;;;;8.00;7.70;;;10.50;99.90;;;;;;5096608;28;20453;-82
2023/10/23 02:41:20;;;;;;;8.53;8.13;;;10.40;99.90;;;;;;5092757;28;20456;-82
2023/10/23 02:43:49;;;;;;;8.00;7.60;;;10.40;99.90;;;;;;5095595;28;20450;-82
2023/10/23 02:46:17;;;;;;;7.90;7.60;;;10.30;99.90;;;;;;5095453;28;20487;-83
2023/10/23 02:48:45;;;;;;;7.60;7.23;;;10.40;99.90;;;;;;5095755;28;20485;-83
2023/10/23 02:51:14;;;;;;;8.30;7.90;;;10.40;99.90;;;;;;5095150;28;20454;-83
2023/10/23 02:53:43;;;;;;;8.33;7.93;;;10.40;99.90;;;;;;5095297;28;20484;-83
2023/10/23 02:56:12;;;;;;;7.80;7.37;;;10.30;99.90;;;;;;5096368;28;20460;-82
2023/10/23 02:58:40;;;;;;;8.20;7.70;;;10.30;99.90;;;;;;5090297;28;21085;-82
2023/10/23 03:01:15;;;;;;;7.73;7.43;;;10.30;99.90;;;;;;5093851;28;20454;-83
2023/10/23 03:03:44;;;;;;;7.60;7.20;;;10.40;99.90;;;;;;5091415;28;20466;-83
2023/10/23 03:06:13;;;;;;;7.83;7.33;;;10.40;99.90;;;;;;5094458;28;20461;-82
2023/10/23 03:08:42;;;;;;;7.07;6.83;;;10.40;99.90;;;;;;5095725;28;20801;-84
2023/10/23 03:11:11;;;;;;;8.00;7.70;;;10.30;99.90;;;;;;5095673;28;21149;-82
2023/10/23 03:13:39;;;;;;;9.00;8.53;;;10.20;99.90;;;;;;5096512;28;20441;-83
2023/10/23 03:16:08;;;;;;;8.53;7.73;;;10.20;99.90;;;;;;5091672;28;20467;-82
2023/10/23 03:18:36;;;;;;;8.27;7.83;;;10.20;99.90;;;;;;5096855;28;20456;-84
2023/10/23 03:21:04;;;;;;;8.60;8.17;;;10.20;99.90;;;;;;5095781;28;20468;-83
2023/10/23 03:23:33;;;;;;;9.20;8.70;;;10.20;99.90;;;;;;5097080;28;20476;-83
2023/10/23 03:26:03;;;;;;;8.57;8.17;;;10.20;99.90;;;;;;5093004;28;20565;-83
2023/10/23 03:28:31;;;;;;;8.43;8.23;;;10.10;99.90;;;;;;5095681;28;20487;-83
2023/10/23 03:31:02;;;;;;;8.67;8.20;;;10.00;99.90;;;;;;5091780;28;20489;-83
2023/10/23 03:33:30;;;;;;;8.80;8.40;;;9.90;99.90;;;;;;5092877;28;20450;-83
2023/10/23 03:35:58;;;;;;;9.00;8.60;;;10.10;99.90;;;;;;5091322;28;20480;-83
2023/10/23 03:38:26;;;;;;;8.33;7.97;;;10.10;99.90;;;;;;5097082;28;20481;-83
2023/10/23 03:40:56;;;;;;;8.27;7.90;;;10.10;99.90;;;;;;5093719;28;20455;-83
2023/10/23 03:43:26;;;;;;;8.90;8.30;;;10.00;99.90;;;;;;5096609;28;20544;-84
2023/10/23 03:45:55;;;;;;;8.70;8.27;;;10.00;99.90;;;;;;5091401;28;20496;-83
2023/10/23 03:48:23;;;;;;;7.63;7.23;;;10.00;99.90;;;;;;5102837;28;21029;-82
2023/10/23 03:50:51;;;;;;;8.60;8.00;;;10.00;99.90;;;;;;5089532;27;20448;-81
2023/10/23 03:53:20;;;;;;;8.10;7.80;;;9.80;99.90;;;;;;5096142;28;20204;-81
2023/10/23 03:55:48;;;;;;;7.80;7.50;;;9.90;99.90;;;;;;5096600;28;20477;-81
2023/10/23 03:58:16;;;;;;;8.13;7.60;;;9.80;99.90;;;;;;5097219;28;20571;-82
2023/10/23 04:00:46;;;;;;;8.30;7.80;;;9.90;99.90;;;;;;5094198;28;20451;-81
2023/10/23 04:03:14;;;;;;;8.20;7.93;;;9.90;99.90;;;;;;5088786;28;20508;-81
2023/10/23 04:05:42;;;;;;;8.23;7.83;;;10.00;99.90;;;;;;5096107;28;20845;-82
2023/10/23 04:08:10;;;;;;;9.07;8.73;;;9.90;99.90;;;;;;5095051;28;20544;-81
2023/10/23 04:10:46;;;;;;;7.97;7.67;;;9.90;99.90;;;;;;5098827;28;20979;-81
2023/10/23 04:13:14;;;;;;;8.20;7.90;;;9.80;99.90;;;;;;5092571;28;20457;-81
2023/10/23 04:15:53;;;;;;;8.80;8.40;;;9.70;99.90;;;;;;5096928;28;20503;-81
2023/10/23 04:18:22;;;;;;;8.70;8.20;;;9.70;99.90;;;;;;5094143;28;20462;-82
2023/10/23 04:20:50;;;;;;;8.87;8.37;;;9.80;99.90;;;;;;5097483;28;20461;-82
2023/10/23 04:23:18;;;;;;;8.53;8.00;;;9.80;99.90;;;;;;5088946;28;20446;-79
2023/10/23 04:25:55;;;;;;;8.00;7.80;;;9.70;99.90;;;;;;5089811;28;20480;-79
2023/10/23 04:28:23;;;;;;;8.50;8.20;;;9.70;99.90;;;;;;5092910;28;20453;-78
2023/10/23 04:30:53;;;;;;;8.40;8.10;;;9.60;99.90;;;;;;5097646;28;20462;-81
2023/10/23 04:33:23;;;;;;;7.97;7.67;;;9.60;99.90;;;;;;5092376;28;20473;-81
2023/10/23 04:35:52;;;;;;;8.10;7.70;;;9.70;99.90;;;;;;5095156;28;20473;-80
2023/10/23 04:38:21;;;;;;;8.20;7.87;;;9.70;99.90;;;;;;5093861;28;20453;-81
2023/10/23 04:40:50;;;;;;;8.67;8.27;;;9.80;99.90;;;;;;5099621;28;20465;-82
2023/10/23 04:43:18;;;;;;;8.20;7.80;;;9.70;99.90;;;;;;5092626;28;20496;-80
2023/10/23 04:45:48;;;;;;;8.27;7.77;;;9.70;99.90;;;;;;5091103;28;20521;-80
2023/10/23 04:48:18;;;;;;;8.00;7.70;;;9.70;99.90;;;;;;5092668;28;20871;-80
2023/10/23 04:50:46;;;;;;;7.87;7.50;;;9.80;99.90;;;;;;5093025;28;20457;-81
2023/10/23 04:53:14;;;;;;;10.00;8.10;;;9.70;99.90;;;;;;5089159;28;20457;-80
2023/10/23 04:55:42;;;;;;;8.67;8.37;;;9.80;99.90;;;;;;5095466;28;20497;-80
2023/10/23 04:58:10;;;;;;;8.20;7.80;;;9.80;99.90;;;;;;5095467;27;20532;-80
2023/10/23 05:00:39;;;;;;;10.23;9.57;;;9.70;99.90;;;;;;5090290;28;20453;-80
2023/10/23 05:03:08;;;;;;;9.90;9.17;;;9.60;99.90;;;;;;5090666;28;20492;-79
2023/10/23 05:05:38;;;;;;;8.53;8.23;;;9.70;99.90;;;;;;5092446;28;20492;-79
2023/10/23 05:08:06;;;;;;;8.50;7.90;;;9.70;99.90;;;;;;5096021;28;20454;-80
2023/10/23 05:10:34;;;;;;;8.50;8.00;;;9.70;99.90;;;;;;5089410;28;20477;-80
2023/10/23 05:13:03;;;;;;;8.23;7.93;;;9.60;99.90;;;;;;5090989;28;20464;-80
2023/10/23 05:15:32;;;;;;;10.00;9.40;;;9.60;99.90;;;;;;5091502;28;20468;-80
2023/10/23 05:18:00;;;;;;;8.30;7.90;;;9.50;99.90;;;;;;5093186;28;20447;-80
2023/10/23 05:20:28;;;;;;;8.57;8.17;;;9.60;99.90;;;;;;5090888;28;20465;-81
2023/10/23 05:22:58;;;;;;;7.47;7.07;;;9.50;99.90;;;;;;5092695;28;20447;-80
2023/10/23 05:25:26;;;;;;;8.47;8.10;;;9.60;99.90;;;;;;5089274;28;21754;-80
2023/10/23 05:27:55;;;;;;;7.50;7.30;;;9.50;99.90;;;;;;5085979;28;20992;-80
2023/10/23 05:30:23;;;;;;;7.90;7.50;;;9.50;99.90;;;;;;5097134;28;20479;-80
2023/10/23 05:32:51;;;;;;;7.90;7.60;;;9.50;99.90;;;;;;5093137;28;20442;-80
2023/10/23 05:35:19;;;;;;;8.10;7.80;;;9.50;99.90;;;;;;5099710;28;20473;-79
2023/10/23 05:37:48;;;;;;;8.90;8.50;;;9.50;99.90;;;;;;5099845;28;20457;-79
2023/10/23 05:40:17;;;;;;;8.80;8.30;;;9.50;99.90;;;;;;5089708;28;21122;-80
2023/10/23 05:42:45;;;;;;;8.50;8.20;;;9.50;99.90;;;;;;5096121;28;20453;-80
2023/10/23 05:45:14;;;;;;;8.60;8.30;;;9.50;99.90;;;;;;5091425;28;20482;-80
2023/10/23 05:47:42;;;;;;;8.00;7.60;;;9.50;99.90;;;;;;5091970;28;20453;-80
2023/10/23 05:50:10;;;;;;;9.17;8.33;;;9.60;99.90;;;;;;5093397;28;21119;-79
2023/10/23 05:52:39;;;;;;;8.67;8.17;;;9.60;99.90;;;;;;5092488;28;20453;-80
2023/10/23 05:55:08;;;;;;;8.90;8.50;;;9.50;99.90;;;;;;5092125;28;20495;-80
2023/10/23 05:57:38;;;;;;;8.87;8.50;;;9.50;99.90;;;;;;5095570;28;20486;-79
2023/10/23 06:00:08;;;;;;;9.10;8.60;;;9.60;99.90;;;;;;5091838;28;20459;-80
2023/10/23 06:02:37;;;;;;;8.00;7.60;;;9.60;99.90;;;;;;5095077;28;20450;-80
2023/10/23 06:05:06;;;;;;;8.80;8.10;;;9.70;99.90;;;;;;5095314;28;20468;-80
2023/10/23 06:07:34;;;;;;;9.00;8.50;;;9.50;99.90;;;;;;5095204;28;20453;-80
2023/10/23 06:10:03;;;;;;;9.00;8.60;;;9.50;99.90;;;;;;5094378;28;20462;-80
2023/10/23 06:12:31;;;;;;;8.20;7.80;;;9.40;99.90;;;;;;5090158;28;20477;-80
2023/10/23 06:15:01;;;;;;;9.23;8.80;;;9.40;99.90;;;;;;5094462;28;20523;-80
2023/10/23 06:17:29;;;;;;;8.87;8.37;;;9.30;99.90;;;;;;5091704;28;20509;-80
2023/10/23 06:19:59;;;;;;;9.00;8.60;;;9.40;99.90;;;;;;5092102;28;20458;-80
2023/10/23 06:22:27;;;;;;;9.00;8.60;;;9.40;99.90;;;;;;5092684;28;20445;-80
2023/10/23 06:24:55;;;;;;;8.87;8.47;;;9.60;99.90;;;;;;5090876;28;20469;-80
2023/10/23 06:27:24;;;;;;;9.27;8.50;;;9.60;99.90;;;;;;5091893;28;20452;-80
2023/10/23 06:29:52;;;;;;;9.40;8.90;;;9.60;99.90;;;;;;5094139;28;20479;-80
2023/10/23 06:32:21;;;;;;;8.80;8.37;;;9.60;99.90;;;;;;5093658;28;20461;-80
2023/10/23 06:34:53;;;;;;;8.80;8.40;;;9.50;99.90;;;;;;5091655;28;20465;-80
2023/10/23 06:37:21;;;;;;;9.87;8.97;;;9.60;99.90;;;;;;5096993;28;20484;-80
2023/10/23 06:39:50;;;;;;;10.33;9.90;;;9.60;99.90;;;;;;5094876;28;20445;-80
2023/10/23 06:42:18;;;;;;;9.57;9.07;;;9.60;99.90;;;;;;5098129;28;20477;-80
2023/10/23 06:44:46;;;;;;;10.40;9.50;;;9.60;99.90;;;;;;5096311;28;20487;-81
2023/10/23 06:47:15;;;;;;;9.97;9.47;;;9.70;1.00;;;;;;5083396;28;20448;-81
2023/10/23 06:49:45;;;;;;;10.40;9.67;;;9.80;1.00;;;;;;5094836;28;20488;-81
2023/10/23 06:52:14;;;;;;;11.00;10.13;;;9.80;1.00;;;;;;5095011;28;20484;-79
2023/10/23 06:54:43;;;;;;;11.10;10.07;;;9.80;1.00;;;;;;5089665;28;20493;-81
2023/10/23 06:57:11;;;;;;;11.53;10.90;;;9.90;1.00;;;;;;5093586;28;20447;-81
2023/10/23 06:59:39;;;;;;;12.57;11.67;;;9.90;1.00;;;;;;5094179;28;20969;-81
2023/10/23 07:02:09;;;;;;;11.00;10.37;;;9.90;1.00;;;;;;5092004;28;20454;-81
2023/10/23 07:04:37;;;;;;;11.87;10.70;;;10.00;1.00;;;;;;5087327;27;20516;-80
2023/10/23 07:07:06;;;;;;;10.23;9.60;;;10.00;1.00;;;;;;5096521;28;20471;-80
2023/10/23 07:09:49;;;;;;;10.17;9.67;;;10.00;1.00;;;;;;5091842;28;20462;-80
2023/10/23 07:12:18;;;;;;;9.80;9.40;;;10.00;1.00;;;;;;5095238;28;20555;-80
2023/10/23 07:14:46;;;;;;;10.30;9.40;;;10.00;1.00;;;;;;5096090;28;20500;-81
2023/10/23 07:17:15;;;;;;;10.13;9.73;;;10.10;1.00;;;;;;5091700;28;20465;-81
2023/10/23 07:19:44;;;;;;;9.33;8.83;;;10.10;1.00;;;;;;5092877;28;20453;-81
2023/10/23 07:22:14;;;;;;;9.97;9.50;;;10.20;1.00;;;;;;5093551;27;20449;-81
2023/10/23 07:24:42;;;;;;;10.73;9.90;;;10.20;1.00;;;;;;5096626;28;20474;-81
2023/10/23 07:27:15;;;;;;;10.77;10.27;;;10.20;1.00;;;;;;5094308;27;20460;-81
2023/10/23 07:29:44;;;;;;;10.50;9.90;;;10.20;1.00;;;;;;5095485;28;20464;-81
2023/10/23 07:32:13;;;;;;;11.10;10.37;;;10.30;1.00;;;;;;5098640;28;20471;-81
2023/10/23 07:34:41;;;;;;;10.00;9.50;;;10.30;1.00;;;;;;5087732;28;20488;-81
2023/10/23 07:37:11;;;;;;;11.37;10.70;;;10.40;1.00;;;;;;5091870;28;20580;-80
2023/10/23 07:39:45;;;;;;;10.57;9.93;;;10.50;1.00;;;;;;5099060;28;21228;-82
2023/10/23 07:42:14;;;;;;;12.23;11.20;;;10.50;1.00;;;;;;5099089;28;20928;-81
2023/10/23 07:44:43;;;;;;;11.10;10.50;;;10.50;1.00;;;;;;5100566;27;20466;-81
2023/10/23 07:47:12;;;;;;;11.60;10.80;;;10.60;1.00;;;;;;5100449;28;20482;-81
2023/10/23 07:49:40;;;;;;;11.30;10.53;;;10.70;1.00;;;;;;5100606;28;20544;-82
2023/10/23 07:52:09;;;;;;;11.53;10.80;;;10.80;1.00;;;;;;5096716;28;20473;-81
2023/10/23 07:54:39;;;;;;;11.27;10.53;;;10.80;1.00;;;;;;5097184;28;20558;-81
2023/10/23 07:57:09;;;;;;;11.07;10.50;;;10.80;1.00;;;;;;5102191;28;20457;-81
2023/10/23 07:59:37;;;;;;;11.67;11.10;;;10.80;1.00;;;;;;5097095;28;20449;-81
2023/10/23 08:02:06;;;;;;;12.50;11.70;;;10.80;1.00;;;;;;5095484;28;20810;-81
2023/10/23 08:04:35;;;;;;;12.07;11.40;;;10.90;1.00;;;;;;5091545;28;20492;-81
2023/10/23 08:07:04;;;;;;;11.37;10.83;;;10.90;1.00;;;;;;5096119;28;20581;-80
2023/10/23 08:09:32;;;;;;;12.40;11.60;;;11.00;1.00;;;;;;5096016;28;20462;-81
2023/10/23 08:12:00;;;;;;;12.17;11.27;;;11.10;1.00;;;;;;5101167;28;20477;-80
2023/10/23 08:14:30;;;;;;;12.37;11.67;;;11.20;3.30;;;;;;5099527;28;20491;-81
2023/10/23 08:16:59;;;;;;;12.10;11.40;;;11.20;1.00;;;;;;5090891;28;20464;-80
2023/10/23 08:19:29;;;;;;;12.83;12.17;;;11.20;75.30;;;;;;5090867;28;20465;-80
2023/10/23 08:21:57;;;;;;;14.20;13.13;;;11.30;90.10;;;;;;5096719;28;20453;-80
2023/10/23 08:24:26;;;;;;;12.33;11.73;;;11.30;81.50;;;;;;5099226;28;20482;-80
2023/10/23 08:26:54;;;;;;;12.30;11.20;;;11.40;22.90;;;;;;5093143;28;21065;-80
2023/10/23 08:29:23;;;;;;;12.50;11.60;;;11.50;1.00;;;;;;5095993;28;20475;-80
2023/10/23 08:31:53;;;;;;;12.57;11.97;;;11.50;1.00;;;;;;5094659;28;20453;-80
2023/10/23 08:34:22;;;;;;;12.13;11.30;;;11.60;1.00;;;;;;5094314;28;20480;-80
2023/10/23 08:36:52;;;;;;;16.00;11.33;;;11.60;1.00;;;;;;5093981;28;20598;-80
2023/10/23 08:39:21;;;;;;;13.87;12.80;;;11.60;1.00;;;;;;5095628;28;20454;-80
2023/10/23 08:41:50;;;;;;;13.40;12.47;;;11.70;1.00;;;;;;5096726;28;20464;-80
2023/10/23 08:44:19;;;;;;;13.00;12.30;;;11.80;1.00;;;;;;5096267;28;20502;-80
2023/10/23 08:46:50;;;;;;;12.50;12.00;;;12.00;1.00;;;;;;5093705;28;20442;-80
2023/10/23 08:49:21;;;;;;;13.40;12.60;;;12.10;1.00;;;;;;5096106;28;20452;-80
2023/10/23 08:51:50;;;;;;;13.53;12.70;;;12.10;1.00;;;;;;5098309;28;20457;-81
2023/10/23 08:54:21;;;;;;;12.73;12.10;;;12.20;1.00;;;;;;5094391;28;20485;-81
2023/10/23 08:56:55;;;;;;;14.10;13.07;;;12.20;1.00;;;;;;5102389;28;21038;-81
2023/10/23 08:59:24;;;;;;;14.13;13.27;;;12.20;1.00;;;;;;5106953;28;20453;-81
2023/10/23 09:01:52;;;;;;;14.57;13.17;;;12.30;1.00;;;;;;5105345;28;20478;-80
2023/10/23 09:04:30;;;;;;;15.17;13.70;;;12.30;1.00;;;;;;5108396;28;21021;-80
2023/10/23 09:07:00;;;;;;;13.90;13.00;;;12.30;1.00;;;;;;5104952;28;20442;-80
2023/10/23 09:09:30;;;;;;;14.10;13.10;;;12.30;1.00;;;;;;5105914;28;20454;-80
2023/10/23 09:12:01;;;;;;;13.63;12.73;;;12.30;1.00;;;;;;5104179;28;20450;-81
2023/10/23 09:14:32;;;;;;;13.53;12.73;;;12.40;1.00;;;;;;5104563;28;20500;-80
2023/10/23 09:17:03;;;;;;;14.43;12.93;;;12.40;1.00;;;;;;5102509;28;20456;-80
2023/10/23 09:19:36;;;;;;;12.60;11.77;;;12.50;1.00;;;;;;5103768;28;20560;-81
2023/10/23 09:22:06;;;;;;;13.30;12.40;;;12.50;1.00;;;;;;5098427;28;21207;-80
2023/10/23 09:24:37;;;;;;;13.20;12.20;;;12.50;1.00;;;;;;5102245;28;20454;-80
2023/10/23 09:27:06;;;;;;;12.43;11.73;;;12.60;1.00;;;;;;5103668;28;20454;-81
2023/10/23 09:29:35;;;;;;;12.80;11.90;;;12.60;2.60;;;;;;5103152;28;20461;-81
2023/10/23 09:32:04;;;;;;;13.20;12.30;;;12.60;6.30;;;;;;5097839;28;20454;-81
2023/10/23 09:34:42;;;;;;;12.53;12.00;;;12.70;1.00;;;;;;5099611;28;20473;-80
2023/10/23 09:37:11;;;;;;;13.17;12.23;;;12.70;1.00;;;;;;5099685;28;20548;-81
2023/10/23 09:39:41;;;;;;;15.60;14.17;;;12.80;1.00;;;;;;5098783;28;20454;-81
2023/10/23 09:42:09;;;;;;;14.10;12.93;;;12.80;1.00;;;;;;5104175;28;20885;-81
2023/10/23 09:44:39;;;;;;;12.67;11.83;;;12.70;1.00;;;;;;5101874;28;20473;-81
2023/10/23 09:47:10;;;;;;;12.40;11.90;;;12.70;1.00;;;;;;5104463;28;20445;-81
2023/10/23 09:49:41;;;;;;;12.70;12.03;;;12.70;1.00;;;;;;5101640;28;20905;-80
2023/10/23 09:52:13;;;;;;;13.67;12.73;;;12.70;1.00;;;;;;5101882;28;20946;-81
2023/10/23 09:54:45;;;;;;;12.80;12.20;;;12.80;1.00;;;;;;5092541;28;20481;-81
2023/10/23 09:57:17;;;;;;;13.20;12.20;;;12.90;1.00;;;;;;5098389;28;20824;-80
2023/10/23 09:59:50;;;;;;;13.93;13.03;;;12.90;1.00;;;;;;5097595;28;20461;-81
2023/10/23 10:02:21;;;;;;;13.03;12.40;;;13.00;1.00;;;;;;5098002;28;20446;-81
2023/10/23 10:04:59;;;;;;;14.73;13.60;;;13.00;1.00;;;;;;5098792;28;20572;-82
2023/10/23 10:07:34;;;;;;;15.87;14.70;;;13.10;1.00;;;;;;5099703;28;20502;-80
2023/10/23 10:10:05;;;;;;;14.07;12.83;;;13.10;1.00;;;;;;5099430;28;20452;-81
2023/10/23 10:12:37;;;;;;;14.63;13.53;;;13.20;1.00;;;;;;5096510;28;20809;-81
2023/10/23 10:15:09;;;;;;;14.30;13.30;;;13.20;1.00;;;;;;5099419;28;20473;-80
2023/10/23 10:17:39;;;;;;;13.70;12.90;;;13.20;1.00;;;;;;5100141;28;20459;-80
2023/10/23 10:20:13;;;;;;;14.37;13.10;;;13.30;1.00;;;;;;5098673;28;20456;-81
2023/10/23 10:22:44;;;;;;;13.23;12.43;;;13.30;1.00;;;;;;5101047;28;20456;-80
2023/10/23 10:25:12;;;;;;;13.10;12.23;;;13.30;1.00;;;;;;5102752;28;20470;-81
2023/10/23 10:27:40;;;;;;;13.30;12.20;;;13.30;1.00;;;;;;5096636;28;20478;-81
2023/10/23 10:30:40;;;;;;;13.93;12.80;;;13.40;1.00;;;;;;5098044;28;20449;-80
2023/10/23 10:33:10;;;;;;;14.23;12.97;;;13.40;1.00;;;;;;5101623;27;20482;-80
2023/10/23 10:36:03;;;;;;;13.43;12.40;;;13.50;1.00;;;;;;5103101;27;20498;-81
2023/10/23 10:38:33;;;;;;;14.63;13.63;;;13.50;1.00;;;;;;5103877;28;20454;-80
2023/10/23 10:41:03;;;;;;;14.53;13.63;;;13.50;1.00;;;;;;5100077;28;20461;-81
2023/10/23 10:43:33;;;;;;;14.63;13.93;;;13.50;1.00;;;;;;5103067;28;20970;-80
2023/10/23 10:46:04;;;;;;;14.30;13.53;;;13.40;1.00;;;;;;5101076;27;20469;-80
2023/10/23 10:48:43;;;;;;;14.60;13.63;;;13.40;1.00;;;;;;5101882;28;20441;-80
2023/10/23 10:51:16;;;;;;;13.63;13.03;;;13.40;1.00;;;;;;5102480;28;20443;-80
2023/10/23 10:53:46;;;;;;;13.60;12.83;;;13.40;1.00;;;;;;5098016;28;20481;-81
2023/10/23 10:56:14;;;;;;;14.90;14.00;;;13.50;1.00;;;;;;5098179;28;20487;-81
2023/10/23 10:58:43;;;;;;;13.30;12.80;;;13.50;1.00;;;;;;5101413;28;20533;-81
2023/10/23 11:01:11;;;;;;;12.70;12.00;;;13.50;1.00;;;;;;5099995;27;20464;-81
2023/10/23 11:03:41;;;;;;;12.23;11.53;;;13.40;1.00;;;;;;5101673;28;20460;-81
2023/10/23 11:06:10;;;;;;;12.50;11.97;;;13.50;1.00;;;;;;5100271;28;20470;-82
2023/10/23 11:08:40;;;;;;;13.43;12.73;;;13.50;1.00;;;;;;5102157;28;20429;-81
2023/10/23 11:11:09;;;;;;;14.20;13.50;;;13.60;1.00;;;;;;5100295;28;20476;-80
2023/10/23 11:13:40;;;;;;;13.40;12.80;;;13.60;1.00;;;;;;5098837;28;20465;-81
2023/10/23 11:16:08;;;;;;;14.10;13.40;;;13.60;1.00;;;;;;5097995;27;20536;-80
2023/10/23 11:18:37;;;;;;;15.33;14.33;;;13.60;1.00;;;;;;5098956;28;20506;-81
2023/10/23 11:21:07;;;;;;;15.20;14.30;;;13.60;1.00;;;;;;5098183;28;20454;-81
2023/10/23 11:23:35;;;;;;;16.70;15.67;;;13.70;1.00;;;;;;5098763;28;21366;-80
2023/10/23 11:26:06;;;;;;;16.97;15.77;;;13.70;1.00;;;;;;5096385;28;20473;-81
2023/10/23 11:28:34;;;;;;;13.70;12.90;;;13.80;1.00;;;;;;5098843;28;20445;-81
2023/10/23 11:31:03;;;;;;;14.30;13.50;;;13.80;1.00;;;;;;5097417;28;21277;-81
2023/10/23 11:33:32;;;;;;;14.47;13.60;;;13.90;1.00;;;;;;5097989;28;20446;-80
2023/10/23 11:36:05;;;;;;;13.57;12.90;;;13.90;1.00;;;;;;5100194;27;20476;-82
2023/10/23 11:38:38;;;;;;;13.63;12.93;;;14.00;99.90;;;;;;5096204;28;20505;-81
2023/10/23 11:41:09;;;;;;;18.13;16.87;;;14.00;99.90;;;;;;5099391;28;20468;-81
2023/10/23 11:43:40;;;;;;;11.40;11.10;;;14.00;99.90;;;;;;5098749;28;20470;-80
2023/10/23 11:46:08;;;;;;;11.13;10.83;;;14.00;99.90;;;;;;5094811;28;20539;-82
2023/10/23 11:48:37;;;;;;;13.40;12.70;;;14.00;99.90;;;;;;5101775;28;20456;-80
2023/10/23 11:51:06;;;;;;;12.50;11.93;;;14.00;99.90;;;;;;5100185;28;21426;-82
2023/10/23 11:53:35;;;;;;;13.07;12.27;;;14.00;99.90;;;;;;5098108;28;20525;-81
2023/10/23 11:56:04;;;;;;;11.53;11.03;;;14.00;99.90;;;;;;5095711;28;20457;-81
2023/10/23 11:58:36;;;;;;;11.93;11.40;;;14.10;99.90;;;;;;5098412;28;20457;-81
2023/10/23 12:01:05;;;;;;;12.50;12.10;;;14.00;99.90;;;;;;5093738;28;20877;-81
2023/10/23 12:03:33;;;;;;;12.43;11.83;;;14.10;99.90;;;;;;5094727;28;20931;-81
2023/10/23 12:06:03;;;;;;;14.83;14.13;;;14.10;99.90;;;;;;5097853;28;20548;-80
2023/10/23 12:08:32;;;;;;;14.93;14.20;;;14.10;99.90;;;;;;5098892;28;20449;-81
2023/10/23 12:11:00;;;;;;;14.80;13.90;;;14.10;99.90;;;;;;5099491;28;20445;-81
2023/10/23 12:13:28;;;;;;;12.33;12.03;;;14.20;99.90;;;;;;5094534;28;20455;-81
2023/10/23 12:15:58;;;;;;;12.90;12.20;;;14.10;99.90;;;;;;5095770;28;20497;-81
2023/10/23 12:18:28;;;;;;;11.97;11.67;;;14.10;99.90;;;;;;5098404;28;20441;-80
2023/10/23 12:20:56;;;;;;;11.73;11.33;;;14.10;99.90;;;;;;5099761;28;20453;-82
2023/10/23 12:23:26;;;;;;;11.90;11.60;;;14.10;99.90;;;;;;5099501;28;20445;-81
2023/10/23 12:25:56;;;;;;;11.80;11.30;;;14.10;1.00;;;;;;5092775;28;20518;-81
2023/10/23 12:28:24;;;;;;;12.43;12.03;;;14.10;1.00;;;;;;5099230;28;20795;-81
2023/10/23 12:30:53;;;;;;;12.43;11.90;;;14.20;1.00;;;;;;5095861;28;20534;-81
2023/10/23 12:33:23;;;;;;;12.67;11.90;;;14.20;1.00;;;;;;5096977;28;20456;-81
2023/10/23 12:36:04;;;;;;;11.93;11.47;;;14.20;1.00;;;;;;5097370;28;20478;-81
2023/10/23 12:38:34;;;;;;;13.13;12.47;;;14.20;1.00;;;;;;5098048;27;20473;-80
2023/10/23 12:41:02;;;;;;;12.03;11.63;;;14.30;1.00;;;;;;5098051;28;20458;-81
2023/10/23 12:43:31;;;;;;;12.37;12.07;;;14.30;1.00;;;;;;5095658;28;20457;-81
2023/10/23 12:46:00;;;;;;;12.63;12.20;;;14.30;1.00;;;;;;5092939;28;20484;-81
2023/10/23 12:48:30;;;;;;;12.67;12.20;;;14.30;1.00;;;;;;5094601;28;20589;-81
2023/10/23 12:50:58;;;;;;;12.83;12.40;;;14.30;1.00;;;;;;5093467;28;20445;-81
2023/10/23 12:53:27;;;;;;;13.00;12.50;;;14.30;1.00;;;;;;5093661;28;20535;-81